Time;durP1;ratioP1;P1;durP2;ratioP2;P2;SDS_P1;SDS_P2;PMS_P1;PMS_P2;Temp;Humidity;BMP_temperature;BMP_pressure;BME280_temperature;BME280_humidity;BME280_pressure;Samples;Min_cycle;Max_cycle;Signal;HPM_P1;HPM_P2
2022/10/16 00:00:39;;;;;;;2.90;1.00;;;;;;;;;;5013103;28;20095;-67
2022/10/16 00:03:06;;;;;;;2.85;1.02;;;;;;;;;;5016705;28;20026;-67
2022/10/16 00:05:31;;;;;;;4.35;1.10;;;;;;;;;;5010804;28;20050;-68
2022/10/16 00:07:57;;;;;;;3.47;1.10;;;;;;;;;;5008604;28;20048;-67
2022/10/16 00:10:23;;;;;;;2.80;1.10;;;;;;;;;;5010757;28;20480;-67
2022/10/16 00:12:48;;;;;;;2.75;0.90;;;;;;;;;;5011206;28;20038;-67
2022/10/16 00:15:13;;;;;;;2.97;1.00;;;;;;;;;;5011205;28;20488;-67
2022/10/16 00:17:39;;;;;;;2.45;1.10;;;;;;;;;;5015810;28;20464;-67
2022/10/16 00:20:05;;;;;;;3.28;1.35;;;;;;;;;;5013868;28;20063;-67
2022/10/16 00:22:30;;;;;;;2.83;1.00;;;;;;;;;;5005673;28;20474;-67
2022/10/16 00:24:56;;;;;;;3.30;1.33;;;;;;;;;;5015946;28;20057;-67
2022/10/16 00:27:21;;;;;;;2.47;1.08;;;;;;;;;;5015414;28;20065;-67
2022/10/16 00:29:51;;;;;;;2.80;0.90;;;;;;;;;;5012070;28;20045;-67
2022/10/16 00:32:17;;;;;;;3.33;0.90;;;;;;;;;;5006221;28;20378;-67
2022/10/16 00:34:43;;;;;;;2.47;0.90;;;;;;;;;;5007561;28;20034;-68
2022/10/16 00:37:08;;;;;;;2.67;1.08;;;;;;;;;;5003108;28;20125;-67
2022/10/16 00:39:33;;;;;;;3.42;1.13;;;;;;;;;;5007533;28;20112;-67
2022/10/16 00:41:59;;;;;;;4.07;1.10;;;;;;;;;;5005716;28;20488;-67
2022/10/16 00:44:46;;;;;;;2.53;0.90;;;;;;;;;;5005437;28;20038;-67
2022/10/16 00:47:17;;;;;;;2.53;0.75;;;;;;;;;;5015277;28;20049;-67
2022/10/16 00:49:43;;;;;;;5.13;1.30;;;;;;;;;;5014229;28;20041;-66
2022/10/16 00:52:08;;;;;;;4.47;1.20;;;;;;;;;;5026078;28;20390;-67
2022/10/16 00:54:33;;;;;;;3.78;1.00;;;;;;;;;;5007644;28;20060;-67
2022/10/16 00:57:02;;;;;;;3.28;1.20;;;;;;;;;;5009115;28;20045;-67
2022/10/16 00:59:33;;;;;;;3.67;0.90;;;;;;;;;;5014579;28;20033;-66
2022/10/16 01:01:59;;;;;;;2.00;1.00;;;;;;;;;;5010394;28;20521;-67
2022/10/16 01:04:26;;;;;;;2.83;0.98;;;;;;;;;;5010935;28;20065;-67
2022/10/16 01:07:12;;;;;;;4.63;1.10;;;;;;;;;;5000281;28;20046;-67
2022/10/16 01:09:43;;;;;;;3.78;1.00;;;;;;;;;;5012303;28;20067;-67
2022/10/16 01:12:14;;;;;;;2.38;0.80;;;;;;;;;;5004904;28;20034;-66
2022/10/16 01:14:50;;;;;;;2.78;1.05;;;;;;;;;;5003505;28;20119;-66
2022/10/16 01:17:19;;;;;;;2.20;0.88;;;;;;;;;;5013575;28;20053;-67
2022/10/16 01:20:10;;;;;;;3.90;0.93;;;;;;;;;;5013561;28;20124;-66
2022/10/16 01:22:38;;;;;;;2.30;0.63;;;;;;;;;;5001864;28;20037;-67
2022/10/16 01:25:09;;;;;;;2.10;0.77;;;;;;;;;;5014307;28;20049;-66
2022/10/16 01:27:36;;;;;;;4.00;1.17;;;;;;;;;;5013556;28;20069;-67
2022/10/16 01:30:01;;;;;;;2.38;0.80;;;;;;;;;;5009923;28;20042;-66
2022/10/16 01:32:43;;;;;;;1.42;0.60;;;;;;;;;;5013611;28;20044;-67
2022/10/16 01:35:21;;;;;;;2.53;0.70;;;;;;;;;;5013137;28;20040;-66
2022/10/16 01:38:01;;;;;;;2.65;0.90;;;;;;;;;;5014880;28;20045;-67
2022/10/16 01:40:28;;;;;;;1.80;0.70;;;;;;;;;;5011679;28;20103;-67
2022/10/16 01:43:00;;;;;;;2.25;1.08;;;;;;;;;;5012769;28;20034;-66
2022/10/16 01:45:27;;;;;;;1.95;0.60;;;;;;;;;;5012894;28;20073;-67
2022/10/16 01:47:53;;;;;;;2.97;1.05;;;;;;;;;;5029221;28;20042;-67
2022/10/16 01:50:19;;;;;;;2.67;0.98;;;;;;;;;;5013606;28;20069;-67
2022/10/16 01:52:47;;;;;;;1.73;0.73;;;;;;;;;;5014109;28;20026;-67
2022/10/16 01:55:16;;;;;;;2.88;1.00;;;;;;;;;;5029095;28;20061;-67
2022/10/16 01:57:44;;;;;;;2.13;0.70;;;;;;;;;;5019728;28;20790;-68
2022/10/16 02:00:12;;;;;;;2.10;0.60;;;;;;;;;;5012470;28;20029;-66
2022/10/16 02:02:40;;;;;;;2.83;0.85;;;;;;;;;;5029128;28;20034;-67
2022/10/16 02:05:31;;;;;;;2.97;0.90;;;;;;;;;;5013404;28;20073;-67
2022/10/16 02:07:56;;;;;;;3.25;1.10;;;;;;;;;;5006890;28;20096;-67
2022/10/16 02:10:23;;;;;;;2.40;0.88;;;;;;;;;;5009431;28;20038;-67
2022/10/16 02:12:54;;;;;;;3.28;0.90;;;;;;;;;;5005099;28;20513;-67
2022/10/16 02:15:20;;;;;;;1.95;0.80;;;;;;;;;;5010045;28;20478;-67
2022/10/16 02:17:45;;;;;;;2.80;1.00;;;;;;;;;;5014138;28;20037;-67
2022/10/16 02:20:11;;;;;;;2.28;0.85;;;;;;;;;;5010738;28;20063;-66
2022/10/16 02:22:41;;;;;;;2.28;0.70;;;;;;;;;;5001647;28;20493;-67
2022/10/16 02:25:29;;;;;;;1.52;0.70;;;;;;;;;;5028072;28;20041;-66
2022/10/16 02:28:06;;;;;;;3.03;0.90;;;;;;;;;;5008650;28;20042;-67
2022/10/16 02:30:37;;;;;;;2.92;0.80;;;;;;;;;;5011862;28;20441;-67
2022/10/16 02:33:04;;;;;;;2.65;0.80;;;;;;;;;;5013298;28;20485;-67
2022/10/16 02:35:30;;;;;;;2.50;0.95;;;;;;;;;;5011874;28;20079;-67
2022/10/16 02:37:57;;;;;;;2.00;0.70;;;;;;;;;;5012709;28;20128;-67
2022/10/16 02:40:23;;;;;;;2.70;0.98;;;;;;;;;;5002758;28;20541;-66
2022/10/16 02:42:51;;;;;;;2.25;0.70;;;;;;;;;;5012144;28;20113;-67
2022/10/16 02:45:18;;;;;;;2.28;0.70;;;;;;;;;;5010263;28;20069;-67
2022/10/16 02:47:43;;;;;;;1.98;0.85;;;;;;;;;;5010277;28;20125;-67
2022/10/16 02:50:09;;;;;;;1.70;0.80;;;;;;;;;;5012547;28;20126;-67
2022/10/16 02:52:34;;;;;;;2.08;0.80;;;;;;;;;;5013478;28;20049;-67
2022/10/16 02:55:00;;;;;;;1.92;0.73;;;;;;;;;;5010563;28;20049;-67
2022/10/16 02:57:25;;;;;;;2.25;0.70;;;;;;;;;;5012364;28;20033;-66
2022/10/16 02:59:51;;;;;;;1.65;0.68;;;;;;;;;;5006308;28;20482;-67
2022/10/16 03:02:16;;;;;;;2.58;0.88;;;;;;;;;;5011406;28;20042;-67
2022/10/16 03:04:42;;;;;;;2.38;0.85;;;;;;;;;;5010878;28;20026;-67
2022/10/16 03:07:07;;;;;;;1.92;0.70;;;;;;;;;;5012805;28;20054;-68
2022/10/16 03:09:33;;;;;;;2.15;0.70;;;;;;;;;;5012594;28;20045;-67
2022/10/16 03:11:58;;;;;;;2.92;0.80;;;;;;;;;;5008000;28;20034;-67
2022/10/16 03:14:24;;;;;;;2.95;0.90;;;;;;;;;;5009271;28;20100;-66
2022/10/16 03:16:49;;;;;;;2.20;0.70;;;;;;;;;;5012700;28;20041;-67
2022/10/16 03:19:16;;;;;;;2.65;0.80;;;;;;;;;;5013170;28;20034;-67
2022/10/16 03:21:42;;;;;;;1.33;0.63;;;;;;;;;;5002166;28;20043;-67
2022/10/16 03:24:07;;;;;;;2.22;0.70;;;;;;;;;;5004481;28;20061;-67
2022/10/16 03:26:32;;;;;;;2.10;0.77;;;;;;;;;;5012576;28;20401;-67
2022/10/16 03:28:58;;;;;;;1.90;0.73;;;;;;;;;;5008321;28;20038;-67
2022/10/16 03:31:23;;;;;;;2.03;0.70;;;;;;;;;;5012763;28;20366;-66
2022/10/16 03:33:48;;;;;;;3.08;0.80;;;;;;;;;;5012757;28;20058;-67
2022/10/16 03:36:14;;;;;;;2.55;0.82;;;;;;;;;;5001155;28;20042;-67
2022/10/16 03:38:39;;;;;;;1.88;0.70;;;;;;;;;;5005965;28;20100;-67
2022/10/16 03:41:05;;;;;;;2.00;0.80;;;;;;;;;;5000098;28;20039;-67
2022/10/16 03:43:30;;;;;;;1.88;0.85;;;;;;;;;;5000564;28;20050;-67
2022/10/16 03:45:55;;;;;;;2.50;1.00;;;;;;;;;;5007093;28;20358;-67
2022/10/16 03:48:21;;;;;;;2.22;1.00;;;;;;;;;;4999253;28;20474;-67
2022/10/16 03:50:48;;;;;;;3.67;0.80;;;;;;;;;;5005176;28;20048;-66
2022/10/16 03:53:14;;;;;;;2.40;0.80;;;;;;;;;;5000064;28;20046;-67
2022/10/16 03:55:41;;;;;;;2.17;0.75;;;;;;;;;;5013375;28;20110;-67
2022/10/16 03:58:07;;;;;;;2.10;0.85;;;;;;;;;;5008403;28;20041;-67
2022/10/16 04:00:32;;;;;;;2.75;0.80;;;;;;;;;;5015373;28;20049;-67
2022/10/16 04:02:58;;;;;;;3.03;1.10;;;;;;;;;;5016591;28;20117;-67
2022/10/16 04:05:23;;;;;;;1.88;0.80;;;;;;;;;;5015889;28;20050;-67
2022/10/16 04:07:49;;;;;;;2.78;0.68;;;;;;;;;;5016636;28;20042;-67
2022/10/16 04:10:14;;;;;;;1.80;0.70;;;;;;;;;;5013615;28;20056;-67
2022/10/16 04:12:40;;;;;;;3.03;1.05;;;;;;;;;;5006697;28;20057;-67
2022/10/16 04:15:05;;;;;;;2.45;0.95;;;;;;;;;;5015556;28;20050;-67
2022/10/16 04:17:31;;;;;;;3.17;0.82;;;;;;;;;;5014507;28;20038;-67
2022/10/16 04:19:56;;;;;;;1.63;0.70;;;;;;;;;;5016041;28;20041;-67
2022/10/16 04:22:21;;;;;;;1.83;0.60;;;;;;;;;;5016144;28;20037;-67
2022/10/16 04:24:47;;;;;;;2.25;0.70;;;;;;;;;;5007737;28;20366;-67
2022/10/16 04:27:12;;;;;;;1.42;0.70;;;;;;;;;;5015931;28;20034;-67
2022/10/16 04:29:37;;;;;;;1.40;0.70;;;;;;;;;;5005903;28;20486;-68
2022/10/16 04:32:03;;;;;;;1.95;0.77;;;;;;;;;;5015519;28;20061;-67
2022/10/16 04:34:28;;;;;;;1.65;0.70;;;;;;;;;;5004329;28;20056;-67
2022/10/16 04:36:54;;;;;;;1.48;0.63;;;;;;;;;;5005887;28;20445;-67
2022/10/16 04:39:19;;;;;;;1.70;0.77;;;;;;;;;;5003023;28;20034;-66
2022/10/16 04:41:44;;;;;;;2.13;0.85;;;;;;;;;;5008033;28;20545;-66
2022/10/16 04:44:10;;;;;;;2.47;0.75;;;;;;;;;;5009453;28;20053;-67
2022/10/16 04:46:35;;;;;;;2.17;1.05;;;;;;;;;;5015383;28;20116;-66
2022/10/16 04:49:00;;;;;;;1.33;0.57;;;;;;;;;;5015252;28;20049;-67
2022/10/16 04:51:27;;;;;;;1.38;0.60;;;;;;;;;;5015605;28;20102;-67
2022/10/16 04:53:53;;;;;;;1.92;0.73;;;;;;;;;;5015157;28;20409;-67
2022/10/16 04:56:18;;;;;;;1.15;0.60;;;;;;;;;;5011159;28;20038;-67
2022/10/16 04:58:43;;;;;;;2.85;0.90;;;;;;;;;;5013210;28;20045;-66
2022/10/16 05:01:09;;;;;;;1.42;0.63;;;;;;;;;;5014918;28;20030;-67
2022/10/16 05:03:34;;;;;;;1.70;0.68;;;;;;;;;;5015472;28;20532;-67
2022/10/16 05:06:00;;;;;;;2.13;0.70;;;;;;;;;;5014923;28;20054;-66
2022/10/16 05:08:25;;;;;;;1.73;0.70;;;;;;;;;;5015228;28;20136;-66
2022/10/16 05:10:51;;;;;;;2.30;0.70;;;;;;;;;;5004007;28;20046;-66
2022/10/16 05:13:16;;;;;;;2.28;0.70;;;;;;;;;;4997972;28;20389;-66
2022/10/16 05:15:46;;;;;;;1.92;0.70;;;;;;;;;;5002349;28;20529;-66
2022/10/16 05:18:12;;;;;;;1.50;0.70;;;;;;;;;;5015251;28;20037;-66
2022/10/16 05:20:37;;;;;;;2.58;0.80;;;;;;;;;;5014626;28;20095;-67
2022/10/16 05:23:03;;;;;;;1.73;0.70;;;;;;;;;;5013811;28;20366;-67
2022/10/16 05:25:28;;;;;;;1.77;0.70;;;;;;;;;;5012600;28;20058;-66
2022/10/16 05:27:54;;;;;;;1.73;0.80;;;;;;;;;;5000178;28;20056;-67
2022/10/16 05:30:20;;;;;;;1.90;0.70;;;;;;;;;;5011259;28;20068;-67
2022/10/16 05:32:50;;;;;;;1.73;0.60;;;;;;;;;;5006162;28;20034;-67
2022/10/16 05:35:16;;;;;;;1.25;0.60;;;;;;;;;;5014656;28;20112;-67
2022/10/16 05:37:42;;;;;;;1.70;0.70;;;;;;;;;;5013706;28;20038;-66
2022/10/16 05:40:09;;;;;;;1.63;0.77;;;;;;;;;;5004721;28;20041;-67
2022/10/16 05:42:34;;;;;;;1.85;0.70;;;;;;;;;;5012108;28;20041;-66
2022/10/16 05:45:00;;;;;;;1.15;0.55;;;;;;;;;;5007650;28;20038;-66
2022/10/16 05:47:25;;;;;;;4.38;0.70;;;;;;;;;;5009540;28;20128;-67
2022/10/16 05:49:50;;;;;;;1.95;0.80;;;;;;;;;;5012142;28;20112;-67
2022/10/16 05:52:16;;;;;;;1.70;0.63;;;;;;;;;;5006500;28;20485;-67
2022/10/16 05:54:41;;;;;;;1.13;0.50;;;;;;;;;;5002016;28;20038;-67
2022/10/16 05:57:07;;;;;;;1.75;0.60;;;;;;;;;;5004886;28;20448;-66
2022/10/16 05:59:32;;;;;;;1.08;0.50;;;;;;;;;;5010770;28;20035;-67
2022/10/16 06:01:57;;;;;;;1.95;0.80;;;;;;;;;;5001870;28;20109;-67
2022/10/16 06:04:23;;;;;;;1.48;0.55;;;;;;;;;;5010662;28;20121;-66
2022/10/16 06:06:48;;;;;;;1.63;0.50;;;;;;;;;;5014062;28;20053;-67
2022/10/16 06:09:14;;;;;;;1.92;0.60;;;;;;;;;;5011928;28;20382;-67
2022/10/16 06:11:39;;;;;;;2.00;0.60;;;;;;;;;;5014172;28;20069;-66
2022/10/16 06:14:08;;;;;;;1.73;0.70;;;;;;;;;;5009877;28;20080;-66
2022/10/16 06:16:35;;;;;;;1.42;0.70;;;;;;;;;;5006707;28;20038;-67
2022/10/16 06:19:01;;;;;;;1.35;0.70;;;;;;;;;;5013149;28;20508;-67
2022/10/16 06:21:28;;;;;;;0.80;0.50;;;;;;;;;;5012411;28;20120;-67
2022/10/16 06:23:57;;;;;;;1.30;0.60;;;;;;;;;;5003455;28;20038;-66
2022/10/16 06:26:25;;;;;;;1.30;0.50;;;;;;;;;;5022833;28;20128;-67
2022/10/16 06:28:50;;;;;;;0.43;0.40;;;;;;;;;;5013624;28;20104;-67
2022/10/16 06:31:16;;;;;;;1.05;0.38;;;;;;;;;;5008713;28;20113;-66
2022/10/16 06:33:42;;;;;;;1.85;0.60;;;;;;;;;;5013497;28;20052;-67
2022/10/16 06:36:12;;;;;;;1.55;0.60;;;;;;;;;;5013629;28;20030;-67
2022/10/16 06:38:39;;;;;;;1.42;0.65;;;;;;;;;;5013635;28;20041;-67
2022/10/16 06:41:05;;;;;;;1.38;0.60;;;;;;;;;;5009108;28;20038;-66
2022/10/16 06:43:37;;;;;;;1.80;0.73;;;;;;;;;;5009598;28;20072;-66
2022/10/16 06:46:04;;;;;;;1.27;0.60;;;;;;;;;;5008594;28;20026;-66
2022/10/16 06:48:30;;;;;;;1.35;0.60;;;;;;;;;;5005047;28;20053;-67
2022/10/16 06:51:16;;;;;;;1.83;0.70;;;;;;;;;;5012854;28;20030;-64
2022/10/16 06:53:44;;;;;;;2.13;0.90;;;;;;;;;;5013226;28;20038;-65
2022/10/16 06:56:20;;;;;;;1.15;0.60;;;;;;;;;;5012816;28;20505;-66
2022/10/16 06:58:46;;;;;;;1.38;0.73;;;;;;;;;;5013146;28;20042;-64
2022/10/16 07:01:13;;;;;;;2.85;1.05;;;;;;;;;;5012944;28;20497;-65
2022/10/16 07:03:40;;;;;;;1.58;0.80;;;;;;;;;;5012994;28;20036;-67
2022/10/16 07:06:07;;;;;;;2.50;0.90;;;;;;;;;;5012502;28;20405;-67
2022/10/16 07:08:36;;;;;;;3.58;1.40;;;;;;;;;;5013161;28;20085;-67
2022/10/16 07:11:04;;;;;;;1.95;0.95;;;;;;;;;;5002194;28;20553;-67
2022/10/16 07:13:29;;;;;;;2.28;0.85;;;;;;;;;;5000960;28;20035;-64
2022/10/16 07:15:55;;;;;;;2.00;0.95;;;;;;;;;;5012497;28;20496;-66
2022/10/16 07:18:21;;;;;;;2.20;0.88;;;;;;;;;;5013078;28;20116;-65
2022/10/16 07:20:47;;;;;;;1.88;0.82;;;;;;;;;;5012686;28;20049;-65
2022/10/16 07:23:12;;;;;;;1.30;0.63;;;;;;;;;;5012924;28;20436;-66
2022/10/16 07:25:37;;;;;;;1.70;0.90;;;;;;;;;;5012045;28;20029;-65
2022/10/16 07:28:03;;;;;;;2.03;0.80;;;;;;;;;;5013403;28;20096;-65
2022/10/16 07:30:28;;;;;;;2.20;0.90;;;;;;;;;;5014542;28;20458;-65
2022/10/16 07:32:54;;;;;;;1.55;0.82;;;;;;;;;;5012621;28;20088;-65
2022/10/16 07:35:19;;;;;;;1.75;0.80;;;;;;;;;;5015037;28;20291;-65
2022/10/16 07:37:45;;;;;;;2.72;0.82;;;;;;;;;;5012831;28;20084;-65
2022/10/16 07:40:11;;;;;;;1.50;0.70;;;;;;;;;;5016831;28;20045;-62
2022/10/16 07:42:37;;;;;;;0.95;0.60;;;;;;;;;;5017004;28;20041;-65
2022/10/16 07:45:02;;;;;;;2.17;1.00;;;;;;;;;;5007344;28;20038;-62
2022/10/16 07:47:28;;;;;;;2.70;0.85;;;;;;;;;;5015667;28;20460;-63
2022/10/16 07:49:53;;;;;;;2.88;0.80;;;;;;;;;;5007145;28;20758;-60
2022/10/16 07:52:19;;;;;;;11.00;1.45;;;;;;;;;;5015398;28;20046;-59
2022/10/16 07:54:44;;;;;;;4.18;0.95;;;;;;;;;;5015529;28;20080;-59
2022/10/16 07:57:09;;;;;;;4.97;0.88;;;;;;;;;;5015841;28;20048;-60
2022/10/16 07:59:35;;;;;;;8.18;1.25;;;;;;;;;;5015465;28;20108;-60
2022/10/16 08:02:00;;;;;;;4.07;0.90;;;;;;;;;;5015278;28;20509;-60
2022/10/16 08:04:25;;;;;;;8.32;1.00;;;;;;;;;;5014854;28;20049;-60
2022/10/16 08:06:51;;;;;;;1.83;0.90;;;;;;;;;;5011723;28;20057;-59
2022/10/16 08:09:16;;;;;;;4.82;1.13;;;;;;;;;;5010685;28;20407;-59
2022/10/16 08:11:42;;;;;;;3.65;0.90;;;;;;;;;;5011468;28;20559;-60
2022/10/16 08:14:07;;;;;;;4.47;1.02;;;;;;;;;;5015362;28;20559;-59
2022/10/16 08:16:32;;;;;;;2.72;0.90;;;;;;;;;;5014990;28;20044;-59
2022/10/16 08:18:58;;;;;;;5.72;1.05;;;;;;;;;;5014874;28;20034;-59
2022/10/16 08:21:24;;;;;;;3.97;0.80;;;;;;;;;;5012232;28;20033;-60
2022/10/16 08:23:50;;;;;;;1.83;0.73;;;;;;;;;;5015540;28;20045;-60
2022/10/16 08:26:16;;;;;;;4.18;0.90;;;;;;;;;;5010603;28;20474;-60
2022/10/16 08:28:42;;;;;;;2.67;0.80;;;;;;;;;;5013083;28;20046;-60
2022/10/16 08:31:13;;;;;;;5.18;0.95;;;;;;;;;;5015060;28;20114;-60
2022/10/16 08:33:40;;;;;;;1.98;0.90;;;;;;;;;;4996813;28;20058;-59
2022/10/16 08:36:06;;;;;;;4.25;0.90;;;;;;;;;;5012641;28;20482;-59
2022/10/16 08:38:33;;;;;;;2.30;0.85;;;;;;;;;;5014398;28;20080;-62
2022/10/16 08:41:28;;;;;;;2.10;0.90;;;;;;;;;;5021483;28;20061;-59
2022/10/16 08:44:15;;;;;;;2.97;0.80;;;;;;;;;;5007415;28;20077;-60
2022/10/16 08:46:46;;;;;;;4.40;1.00;;;;;;;;;;5007820;28;20099;-60
2022/10/16 08:49:15;;;;;;;2.15;0.70;;;;;;;;;;5010099;28;20476;-59
2022/10/16 08:51:41;;;;;;;5.68;1.27;;;;;;;;;;5011308;28;20041;-60
2022/10/16 08:54:36;;;;;;;4.38;0.88;;;;;;;;;;5010807;28;20039;-59
2022/10/16 08:57:14;;;;;;;2.25;0.70;;;;;;;;;;5008820;28;20049;-60
2022/10/16 08:59:39;;;;;;;2.13;0.80;;;;;;;;;;5011406;28;20126;-59
2022/10/16 09:02:29;;;;;;;2.63;0.80;;;;;;;;;;5009421;28;20124;-58
2022/10/16 09:05:57;;;;;;;1.90;0.90;;;;;;;;;;5010713;28;20038;-60
2022/10/16 09:08:31;;;;;;;1.70;0.70;;;;;;;;;;4965875;28;20046;-60
2022/10/16 09:11:00;;;;;;;3.30;0.90;;;;;;;;;;5023462;28;20370;-60
2022/10/16 09:13:41;;;;;;;5.72;1.08;;;;;;;;;;5008164;28;20604;-60
2022/10/16 09:16:12;;;;;;;2.40;0.90;;;;;;;;;;5013249;28;20053;-63
2022/10/16 09:18:42;;;;;;;4.85;0.75;;;;;;;;;;5009094;28;20045;-61
2022/10/16 09:21:07;;;;;;;4.35;1.10;;;;;;;;;;5009002;28;20038;-60
2022/10/16 09:23:35;;;;;;;5.78;1.10;;;;;;;;;;5011348;28;20048;-58
2022/10/16 09:26:01;;;;;;;8.05;0.77;;;;;;;;;;4996209;28;20041;-63
2022/10/16 09:28:27;;;;;;;5.03;0.90;;;;;;;;;;5009952;28;20038;-61
2022/10/16 09:30:53;;;;;;;5.70;0.73;;;;;;;;;;5010513;28;20038;-60
2022/10/16 09:33:21;;;;;;;7.13;0.82;;;;;;;;;;5010735;28;20049;-61
2022/10/16 09:35:51;;;;;;;8.70;1.95;;;;;;;;;;5009874;28;20433;-66
2022/10/16 09:38:28;;;;;;;2.20;1.00;;;;;;;;;;5008762;28;20430;-61
2022/10/16 09:40:54;;;;;;;4.90;1.10;;;;;;;;;;5003859;28;20538;-61
2022/10/16 09:43:38;;;;;;;4.05;1.00;;;;;;;;;;5008807;28;20108;-60
2022/10/16 09:46:07;;;;;;;6.13;1.00;;;;;;;;;;5007856;28;20065;-61
2022/10/16 09:48:48;;;;;;;4.82;1.05;;;;;;;;;;5009071;28;20045;-63
2022/10/16 09:51:20;;;;;;;7.97;1.35;;;;;;;;;;4999357;28;20097;-67
2022/10/16 09:53:47;;;;;;;2.28;0.90;;;;;;;;;;5024354;28;20580;-60
2022/10/16 09:56:25;;;;;;;2.53;0.90;;;;;;;;;;5005478;28;20117;-61
2022/10/16 09:58:52;;;;;;;5.05;0.90;;;;;;;;;;5010554;28;20041;-61
2022/10/16 10:01:18;;;;;;;1.90;0.70;;;;;;;;;;5008029;28;20500;-60
2022/10/16 10:03:45;;;;;;;6.55;1.00;;;;;;;;;;5006713;28;20040;-60
2022/10/16 10:06:27;;;;;;;2.45;0.90;;;;;;;;;;5006012;28;20054;-60
2022/10/16 10:08:58;;;;;;;5.75;1.38;;;;;;;;;;5010935;28;20077;-60
2022/10/16 10:11:40;;;;;;;3.58;0.90;;;;;;;;;;5008030;28;20060;-60
2022/10/16 10:14:20;;;;;;;2.60;1.00;;;;;;;;;;5005524;28;20076;-60
2022/10/16 10:16:46;;;;;;;2.53;0.70;;;;;;;;;;5011665;28;20066;-60
2022/10/16 10:19:22;;;;;;;1.92;0.80;;;;;;;;;;5002055;28;20042;-63
2022/10/16 10:21:49;;;;;;;4.55;1.13;;;;;;;;;;5008113;28;20061;-62
2022/10/16 10:24:16;;;;;;;3.35;0.90;;;;;;;;;;4994860;28;20460;-59
2022/10/16 10:26:52;;;;;;;5.65;1.13;;;;;;;;;;5010706;28;20449;-61
2022/10/16 10:29:27;;;;;;;6.63;1.00;;;;;;;;;;5028554;28;20042;-60
2022/10/16 10:32:19;;;;;;;12.50;1.52;;;;;;;;;;5011314;28;20042;-61
2022/10/16 10:35:03;;;;;;;3.28;1.20;;;;;;;;;;5003625;28;20057;-60
2022/10/16 10:37:35;;;;;;;6.60;1.25;;;;;;;;;;5012933;28;20041;-60
2022/10/16 10:40:19;;;;;;;1.88;0.80;;;;;;;;;;5001577;28;20050;-60
2022/10/16 10:42:53;;;;;;;4.03;0.90;;;;;;;;;;5010312;28;20050;-60
2022/10/16 10:45:33;;;;;;;2.47;0.90;;;;;;;;;;5028049;28;20038;-60
2022/10/16 10:47:59;;;;;;;1.85;0.80;;;;;;;;;;5020893;28;20513;-61
2022/10/16 10:50:47;;;;;;;3.45;1.00;;;;;;;;;;5012032;28;20034;-60
2022/10/16 10:53:37;;;;;;;3.42;1.25;;;;;;;;;;5008788;28;20061;-59
2022/10/16 10:56:29;;;;;;;3.78;1.02;;;;;;;;;;5005215;28;20482;-60
2022/10/16 10:59:00;;;;;;;8.98;1.05;;;;;;;;;;5006452;28;20043;-60
2022/10/16 11:02:01;;;;;;;5.70;0.90;;;;;;;;;;5001625;28;20541;-60
2022/10/16 11:04:32;;;;;;;4.30;1.20;;;;;;;;;;5008085;28;20049;-60
2022/10/16 11:07:02;;;;;;;2.35;0.70;;;;;;;;;;5013539;28;20089;-60
2022/10/16 11:09:34;;;;;;;3.40;1.00;;;;;;;;;;5012280;28;20061;-60
2022/10/16 11:12:27;;;;;;;2.17;0.83;;;;;;;;;;5012187;28;20033;-60
2022/10/16 11:15:02;;;;;;;5.30;1.13;;;;;;;;;;4996890;28;20058;-61
2022/10/16 11:17:38;;;;;;;3.13;0.82;;;;;;;;;;5005330;28;20125;-60
2022/10/16 11:20:22;;;;;;;4.22;0.98;;;;;;;;;;5011513;28;20049;-61
2022/10/16 11:22:48;;;;;;;;;;;;;;;;;;5010881;28;20089;-60
2022/10/16 11:25:16;;;;;;;2.38;0.85;;;;;;;;;;4994069;28;20309;-59
2022/10/16 11:27:50;;;;;;;7.22;1.00;;;;;;;;;;5006661;28;20045;-60
2022/10/16 11:30:21;;;;;;;5.43;1.10;;;;;;;;;;5013124;28;20502;-60
2022/10/16 11:33:05;;;;;;;3.50;0.93;;;;;;;;;;5011822;28;20042;-60
2022/10/16 11:35:33;;;;;;;;;;;;;;;;;;5009009;28;20120;-60
2022/10/16 11:37:59;;;;;;;4.25;1.00;;;;;;;;;;4998552;28;19909;-60
2022/10/16 11:40:29;;;;;;;4.05;1.02;;;;;;;;;;5012304;28;20046;-60
2022/10/16 11:42:59;;;;;;;2.97;0.93;;;;;;;;;;5013097;28;20038;-59
2022/10/16 11:45:59;;;;;;;1.77;0.80;;;;;;;;;;5012944;28;20026;-60
2022/10/16 11:48:35;;;;;;;2.25;0.80;;;;;;;;;;4981436;28;20046;-60
2022/10/16 11:51:36;;;;;;;2.42;0.93;;;;;;;;;;5003635;28;20040;-60
2022/10/16 11:54:14;;;;;;;2.92;0.90;;;;;;;;;;5006871;28;20046;-60
2022/10/16 11:56:41;;;;;;;3.50;1.08;;;;;;;;;;5011584;28;20473;-61
2022/10/16 11:59:29;;;;;;;3.05;0.95;;;;;;;;;;5011784;28;20042;-60
2022/10/16 12:02:20;;;;;;;2.03;0.90;;;;;;;;;;4992150;28;20049;-61
2022/10/16 12:04:50;;;;;;;2.97;0.90;;;;;;;;;;5010763;28;20041;-60
2022/10/16 12:07:20;;;;;;;2.97;0.73;;;;;;;;;;5011460;28;20050;-60
2022/10/16 12:09:46;;;;;;;1.52;0.75;;;;;;;;;;4999328;28;20038;-59
2022/10/16 12:12:37;;;;;;;2.47;0.80;;;;;;;;;;4999322;28;20038;-61
2022/10/16 12:15:24;;;;;;;2.78;0.75;;;;;;;;;;5007599;28;20041;-60
2022/10/16 12:17:51;;;;;;;1.67;0.70;;;;;;;;;;5008784;28;20029;-60
2022/10/16 12:20:16;;;;;;;3.45;0.90;;;;;;;;;;5015032;28;20067;-60
2022/10/16 12:23:05;;;;;;;3.90;0.93;;;;;;;;;;5014893;28;20475;-60
2022/10/16 12:25:37;;;;;;;1.92;0.80;;;;;;;;;;5016111;28;20060;-60
2022/10/16 12:28:04;;;;;;;2.10;0.70;;;;;;;;;;5003400;28;20041;-60
2022/10/16 12:30:32;;;;;;;2.33;0.75;;;;;;;;;;5016850;28;20042;-60
2022/10/16 12:33:02;;;;;;;2.88;0.82;;;;;;;;;;5004263;28;20042;-60
2022/10/16 12:35:33;;;;;;;3.58;0.90;;;;;;;;;;4998705;28;20069;-60
2022/10/16 12:38:07;;;;;;;2.05;0.90;;;;;;;;;;4996858;28;20034;-60
2022/10/16 12:40:34;;;;;;;3.67;1.20;;;;;;;;;;5014420;28;20441;-59
2022/10/16 12:43:11;;;;;;;4.97;2.25;;;;;;;;;;5012509;28;20405;-60
2022/10/16 12:45:36;;;;;;;2.58;0.73;;;;;;;;;;5007724;28;20030;-62
2022/10/16 12:48:17;;;;;;;2.65;0.93;;;;;;;;;;5029932;28;20512;-60
2022/10/16 12:50:42;;;;;;;1.75;0.77;;;;;;;;;;5013018;28;20033;-60
2022/10/16 12:53:25;;;;;;;2.15;0.88;;;;;;;;;;5009955;28;20041;-62
2022/10/16 12:56:20;;;;;;;4.40;0.98;;;;;;;;;;5011201;28;20038;-60
2022/10/16 12:58:59;;;;;;;1.95;0.70;;;;;;;;;;5034904;28;20034;-61
2022/10/16 13:01:52;;;;;;;8.30;1.58;;;;;;;;;;5014244;28;20080;-59
2022/10/16 13:04:17;;;;;;;2.00;0.90;;;;;;;;;;5029510;28;20049;-60
2022/10/16 13:06:55;;;;;;;3.58;1.00;;;;;;;;;;5014807;28;20547;-58
2022/10/16 13:09:38;;;;;;;2.90;1.00;;;;;;;;;;5001137;28;20050;-67
2022/10/16 13:12:19;;;;;;;18.42;1.65;;;;;;;;;;5026871;28;20420;-59
2022/10/16 13:14:44;;;;;;;2.22;0.80;;;;;;;;;;5007419;28;20042;-59
2022/10/16 13:17:35;;;;;;;4.70;0.90;;;;;;;;;;5004770;28;20048;-60
2022/10/16 13:20:25;;;;;;;6.47;0.90;;;;;;;;;;5030254;28;20043;-59
2022/10/16 13:22:54;;;;;;;1.65;0.73;;;;;;;;;;5011240;28;20124;-59
2022/10/16 13:25:26;;;;;;;1.83;0.70;;;;;;;;;;5011211;28;20048;-59
2022/10/16 13:28:03;;;;;;;3.22;1.13;;;;;;;;;;5001072;28;20034;-59
2022/10/16 13:30:30;;;;;;;12.52;1.50;;;;;;;;;;5010940;28;20048;-59
2022/10/16 13:33:04;;;;;;;6.70;0.90;;;;;;;;;;5006915;28;20113;-60
2022/10/16 13:35:33;;;;;;;3.17;0.90;;;;;;;;;;5004868;28;20045;-60
2022/10/16 13:38:13;;;;;;;4.65;0.98;;;;;;;;;;5010075;28;20045;-60
2022/10/16 13:40:54;;;;;;;12.57;1.13;;;;;;;;;;5008348;28;20370;-60
2022/10/16 13:43:22;;;;;;;8.82;1.25;;;;;;;;;;5010261;28;20030;-60
2022/10/16 13:45:59;;;;;;;9.00;1.40;;;;;;;;;;5011064;28;20144;-59
2022/10/16 13:48:25;;;;;;;4.75;0.98;;;;;;;;;;5009046;28;20038;-61
2022/10/16 13:51:10;;;;;;;5.18;1.00;;;;;;;;;;5007854;28;20069;-62
2022/10/16 13:53:36;;;;;;;6.00;0.90;;;;;;;;;;4996159;28;21716;-60
2022/10/16 13:56:04;;;;;;;4.85;1.20;;;;;;;;;;5021756;28;20121;-58
2022/10/16 13:58:29;;;;;;;11.02;1.45;;;;;;;;;;5009696;28;20057;-59
2022/10/16 14:01:16;;;;;;;6.63;1.10;;;;;;;;;;5010313;28;20501;-58
2022/10/16 14:03:42;;;;;;;2.72;0.82;;;;;;;;;;5025863;28;20129;-59
2022/10/16 14:06:13;;;;;;;5.72;1.10;;;;;;;;;;5010774;28;20050;-59
2022/10/16 14:08:42;;;;;;;13.68;3.90;;;;;;;;;;5009469;28;20049;-59
2022/10/16 14:11:07;;;;;;;9.05;3.40;;;;;;;;;;5009819;28;20068;-59
2022/10/16 14:13:39;;;;;;;10.75;2.80;;;;;;;;;;5012443;28;20065;-58
2022/10/16 14:16:10;;;;;;;13.32;2.35;;;;;;;;;;5012506;28;20049;-57
2022/10/16 14:18:37;;;;;;;8.38;2.30;;;;;;;;;;5013663;28;20041;-59
2022/10/16 14:21:04;;;;;;;9.63;1.85;;;;;;;;;;5007171;28;20038;-59
2022/10/16 14:23:38;;;;;;;13.60;1.70;;;;;;;;;;5010429;28;20030;-60
2022/10/16 14:26:10;;;;;;;6.40;1.70;;;;;;;;;;5010192;28;20041;-60
2022/10/16 14:28:40;;;;;;;5.80;1.67;;;;;;;;;;5013224;28;20489;-59
2022/10/16 14:31:42;;;;;;;11.60;1.77;;;;;;;;;;5010952;28;20421;-59
2022/10/16 14:34:52;;;;;;;8.65;1.65;;;;;;;;;;5006291;28;20034;-59
2022/10/16 14:37:26;;;;;;;16.20;2.03;;;;;;;;;;5011326;28;20565;-59
2022/10/16 14:39:51;;;;;;;;;;;;;;;;;;5017799;28;20041;-59
2022/10/16 14:42:19;;;;;;;15.55;2.13;;;;;;;;;;5020895;28;19917;-59
2022/10/16 14:44:45;;;;;;;25.05;3.35;;;;;;;;;;5008131;28;20041;-60
2022/10/16 14:47:21;;;;;;;11.30;1.70;;;;;;;;;;5011943;28;20045;-58
2022/10/16 14:49:47;;;;;;;9.50;1.60;;;;;;;;;;5012408;28;20508;-78
2022/10/16 14:52:12;;;;;;;9.23;1.65;;;;;;;;;;5009983;28;20030;-63
2022/10/16 14:54:39;;;;;;;11.80;1.70;;;;;;;;;;5011871;28;20060;-59
2022/10/16 14:57:05;;;;;;;5.50;1.65;;;;;;;;;;4990927;28;20045;-60
2022/10/16 14:59:35;;;;;;;5.90;1.48;;;;;;;;;;4991815;28;20042;-58
2022/10/16 15:02:16;;;;;;;5.57;1.30;;;;;;;;;;5001834;28;20516;-62